sensor_id;sensor_type;location;lat;lon;timestamp;P1;durP1;ratioP1;P2;durP2;ratioP2
68188;SDS011;66299;47.514;19.218;2022-12-29T00:00:18;44.35;;;24.45;;
68188;SDS011;66299;47.514;19.218;2022-12-29T00:02:47;41.90;;;23.85;;
68188;SDS011;66299;47.514;19.218;2022-12-29T00:05:16;44.60;;;24.55;;
68188;SDS011;66299;47.514;19.218;2022-12-29T00:07:45;44.55;;;24.52;;
68188;SDS011;66299;47.514;19.218;2022-12-29T00:10:13;44.03;;;24.58;;
68188;SDS011;66299;47.514;19.218;2022-12-29T00:12:43;44.55;;;24.40;;
68188;SDS011;66299;47.514;19.218;2022-12-29T00:15:29;41.30;;;23.25;;
68188;SDS011;66299;47.514;19.218;2022-12-29T00:18:07;43.05;;;24.15;;
68188;SDS011;66299;47.514;19.218;2022-12-29T00:20:36;43.58;;;24.45;;
68188;SDS011;66299;47.514;19.218;2022-12-29T00:23:22;44.47;;;25.67;;
68188;SDS011;66299;47.514;19.218;2022-12-29T00:26:10;44.97;;;25.35;;
68188;SDS011;66299;47.514;19.218;2022-12-29T00:29:02;37.97;;;23.38;;
68188;SDS011;66299;47.514;19.218;2022-12-29T00:31:48;45.40;;;23.92;;
68188;SDS011;66299;47.514;19.218;2022-12-29T00:34:36;42.00;;;23.15;;
68188;SDS011;66299;47.514;19.218;2022-12-29T00:40:08;38.60;;;23.25;;
68188;SDS011;66299;47.514;19.218;2022-12-29T00:42:50;38.78;;;22.77;;
68188;SDS011;66299;47.514;19.218;2022-12-29T00:45:38;38.10;;;21.73;;
68188;SDS011;66299;47.514;19.218;2022-12-29T00:48:10;39.45;;;22.33;;
68188;SDS011;66299;47.514;19.218;2022-12-29T00:50:39;38.47;;;21.52;;
68188;SDS011;66299;47.514;19.218;2022-12-29T00:53:06;45.08;;;21.73;;
68188;SDS011;66299;47.514;19.218;2022-12-29T00:55:36;37.72;;;21.27;;
68188;SDS011;66299;47.514;19.218;2022-12-29T00:58:04;35.75;;;21.20;;
68188;SDS011;66299;47.514;19.218;2022-12-29T01:00:33;37.25;;;21.45;;
68188;SDS011;66299;47.514;19.218;2022-12-29T01:03:04;35.75;;;20.77;;
68188;SDS011;66299;47.514;19.218;2022-12-29T01:05:35;37.05;;;21.00;;
68188;SDS011;66299;47.514;19.218;2022-12-29T01:08:04;36.08;;;21.08;;
68188;SDS011;66299;47.514;19.218;2022-12-29T01:10:33;39.33;;;21.45;;
68188;SDS011;66299;47.514;19.218;2022-12-29T01:13:00;36.85;;;21.38;;
68188;SDS011;66299;47.514;19.218;2022-12-29T01:15:30;39.63;;;21.23;;
68188;SDS011;66299;47.514;19.218;2022-12-29T01:17:59;33.75;;;20.67;;
68188;SDS011;66299;47.514;19.218;2022-12-29T01:20:30;35.75;;;20.70;;
68188;SDS011;66299;47.514;19.218;2022-12-29T01:22:59;39.08;;;21.67;;
68188;SDS011;66299;47.514;19.218;2022-12-29T01:25:27;38.28;;;22.17;;
68188;SDS011;66299;47.514;19.218;2022-12-29T01:27:59;36.85;;;21.50;;
68188;SDS011;66299;47.514;19.218;2022-12-29T01:30:27;40.15;;;22.73;;
68188;SDS011;66299;47.514;19.218;2022-12-29T01:32:56;37.17;;;21.80;;
68188;SDS011;66299;47.514;19.218;2022-12-29T01:35:24;36.00;;;21.92;;
68188;SDS011;66299;47.514;19.218;2022-12-29T01:37:55;39.35;;;22.70;;
68188;SDS011;66299;47.514;19.218;2022-12-29T01:40:24;40.08;;;22.95;;
68188;SDS011;66299;47.514;19.218;2022-12-29T01:42:52;39.50;;;22.10;;
68188;SDS011;66299;47.514;19.218;2022-12-29T01:45:21;39.35;;;22.58;;
68188;SDS011;66299;47.514;19.218;2022-12-29T01:47:53;36.78;;;22.92;;
68188;SDS011;66299;47.514;19.218;2022-12-29T01:50:26;41.42;;;22.98;;
68188;SDS011;66299;47.514;19.218;2022-12-29T01:53:02;41.50;;;24.17;;
68188;SDS011;66299;47.514;19.218;2022-12-29T01:55:34;43.90;;;23.77;;
68188;SDS011;66299;47.514;19.218;2022-12-29T01:58:06;42.42;;;23.98;;
68188;SDS011;66299;47.514;19.218;2022-12-29T02:00:35;43.00;;;24.35;;
68188;SDS011;66299;47.514;19.218;2022-12-29T02:03:05;41.10;;;23.98;;
68188;SDS011;66299;47.514;19.218;2022-12-29T02:05:38;38.40;;;23.50;;
68188;SDS011;66299;47.514;19.218;2022-12-29T02:08:12;40.45;;;24.13;;
68188;SDS011;66299;47.514;19.218;2022-12-29T02:10:41;37.17;;;22.77;;
68188;SDS011;66299;47.514;19.218;2022-12-29T02:13:11;36.92;;;21.90;;
68188;SDS011;66299;47.514;19.218;2022-12-29T02:15:47;38.25;;;23.33;;
68188;SDS011;66299;47.514;19.218;2022-12-29T02:18:30;38.35;;;22.60;;
68188;SDS011;66299;47.514;19.218;2022-12-29T02:21:17;37.80;;;22.52;;
68188;SDS011;66299;47.514;19.218;2022-12-29T02:30:30;34.65;;;21.90;;
68188;SDS011;66299;47.514;19.218;2022-12-29T02:33:09;35.63;;;22.20;;
68188;SDS011;66299;47.514;19.218;2022-12-29T02:35:50;42.53;;;22.80;;
68188;SDS011;66299;47.514;19.218;2022-12-29T02:38:26;37.92;;;23.08;;
68188;SDS011;66299;47.514;19.218;2022-12-29T02:43:37;39.60;;;23.88;;
68188;SDS011;66299;47.514;19.218;2022-12-29T02:46:14;39.65;;;24.58;;
68188;SDS011;66299;47.514;19.218;2022-12-29T02:48:51;39.40;;;24.80;;
68188;SDS011;66299;47.514;19.218;2022-12-29T02:51:25;45.90;;;26.10;;
68188;SDS011;66299;47.514;19.218;2022-12-29T02:53:59;43.38;;;25.60;;
68188;SDS011;66299;47.514;19.218;2022-12-29T02:56:45;42.53;;;25.60;;
68188;SDS011;66299;47.514;19.218;2022-12-29T02:59:14;41.30;;;25.95;;
68188;SDS011;66299;47.514;19.218;2022-12-29T03:01:53;39.97;;;24.50;;
68188;SDS011;66299;47.514;19.218;2022-12-29T03:04:51;41.47;;;24.70;;
68188;SDS011;66299;47.514;19.218;2022-12-29T03:07:40;39.75;;;23.75;;
68188;SDS011;66299;47.514;19.218;2022-12-29T03:10:17;42.80;;;24.10;;
68188;SDS011;66299;47.514;19.218;2022-12-29T03:12:54;39.78;;;24.55;;
68188;SDS011;66299;47.514;19.218;2022-12-29T03:15:50;39.15;;;23.92;;
68188;SDS011;66299;47.514;19.218;2022-12-29T03:18:34;39.60;;;24.60;;
68188;SDS011;66299;47.514;19.218;2022-12-29T03:21:12;43.20;;;26.23;;
68188;SDS011;66299;47.514;19.218;2022-12-29T03:23:44;44.35;;;26.73;;
68188;SDS011;66299;47.514;19.218;2022-12-29T03:26:18;44.40;;;27.55;;
68188;SDS011;66299;47.514;19.218;2022-12-29T03:28:50;43.05;;;26.58;;
68188;SDS011;66299;47.514;19.218;2022-12-29T03:31:22;43.28;;;26.38;;
68188;SDS011;66299;47.514;19.218;2022-12-29T03:33:54;44.83;;;27.30;;
68188;SDS011;66299;47.514;19.218;2022-12-29T03:36:26;47.00;;;26.55;;
68188;SDS011;66299;47.514;19.218;2022-12-29T03:39:05;47.67;;;27.92;;
68188;SDS011;66299;47.514;19.218;2022-12-29T03:41:40;46.33;;;28.33;;
68188;SDS011;66299;47.514;19.218;2022-12-29T03:44:12;45.33;;;27.42;;
68188;SDS011;66299;47.514;19.218;2022-12-29T03:46:43;46.53;;;27.70;;
68188;SDS011;66299;47.514;19.218;2022-12-29T03:49:14;49.00;;;29.33;;
68188;SDS011;66299;47.514;19.218;2022-12-29T03:51:44;51.72;;;28.92;;
68188;SDS011;66299;47.514;19.218;2022-12-29T03:54:17;51.28;;;31.05;;
68188;SDS011;66299;47.514;19.218;2022-12-29T03:56:45;49.55;;;29.13;;
68188;SDS011;66299;47.514;19.218;2022-12-29T03:59:14;48.83;;;29.75;;
68188;SDS011;66299;47.514;19.218;2022-12-29T04:01:43;47.35;;;29.13;;
68188;SDS011;66299;47.514;19.218;2022-12-29T04:04:17;49.53;;;29.05;;
68188;SDS011;66299;47.514;19.218;2022-12-29T04:06:45;46.92;;;28.73;;
68188;SDS011;66299;47.514;19.218;2022-12-29T04:09:14;49.50;;;28.98;;
68188;SDS011;66299;47.514;19.218;2022-12-29T04:11:43;49.25;;;29.35;;
68188;SDS011;66299;47.514;19.218;2022-12-29T04:14:11;51.17;;;29.45;;
68188;SDS011;66299;47.514;19.218;2022-12-29T04:16:40;51.35;;;30.02;;
68188;SDS011;66299;47.514;19.218;2022-12-29T04:19:09;48.40;;;29.17;;
68188;SDS011;66299;47.514;19.218;2022-12-29T04:21:39;51.38;;;30.60;;
68188;SDS011;66299;47.514;19.218;2022-12-29T04:24:08;53.22;;;30.02;;
68188;SDS011;66299;47.514;19.218;2022-12-29T04:26:36;51.25;;;29.52;;
68188;SDS011;66299;47.514;19.218;2022-12-29T04:29:05;49.65;;;30.13;;
68188;SDS011;66299;47.514;19.218;2022-12-29T04:31:34;52.58;;;30.95;;
68188;SDS011;66299;47.514;19.218;2022-12-29T04:34:03;49.60;;;30.02;;
68188;SDS011;66299;47.514;19.218;2022-12-29T04:36:31;52.50;;;30.80;;
68188;SDS011;66299;47.514;19.218;2022-12-29T04:39:02;54.08;;;31.58;;
68188;SDS011;66299;47.514;19.218;2022-12-29T04:41:33;55.85;;;31.95;;
68188;SDS011;66299;47.514;19.218;2022-12-29T04:44:01;59.92;;;33.30;;
68188;SDS011;66299;47.514;19.218;2022-12-29T04:46:30;60.70;;;33.08;;
68188;SDS011;66299;47.514;19.218;2022-12-29T04:48:59;58.38;;;33.50;;
68188;SDS011;66299;47.514;19.218;2022-12-29T04:51:38;60.53;;;35.38;;
68188;SDS011;66299;47.514;19.218;2022-12-29T04:54:09;63.75;;;35.63;;
68188;SDS011;66299;47.514;19.218;2022-12-29T04:56:37;62.20;;;36.00;;
68188;SDS011;66299;47.514;19.218;2022-12-29T04:59:08;69.53;;;36.83;;
68188;SDS011;66299;47.514;19.218;2022-12-29T05:01:40;63.33;;;36.05;;
68188;SDS011;66299;47.514;19.218;2022-12-29T05:04:09;64.35;;;35.63;;
68188;SDS011;66299;47.514;19.218;2022-12-29T05:06:38;64.55;;;36.17;;
68188;SDS011;66299;47.514;19.218;2022-12-29T05:09:10;62.92;;;34.97;;
68188;SDS011;66299;47.514;19.218;2022-12-29T05:11:38;60.97;;;35.65;;
68188;SDS011;66299;47.514;19.218;2022-12-29T05:14:08;60.67;;;34.55;;
68188;SDS011;66299;47.514;19.218;2022-12-29T05:16:37;61.85;;;34.38;;
68188;SDS011;66299;47.514;19.218;2022-12-29T05:19:07;61.53;;;34.97;;
68188;SDS011;66299;47.514;19.218;2022-12-29T05:21:35;59.35;;;35.05;;
68188;SDS011;66299;47.514;19.218;2022-12-29T05:24:05;61.40;;;35.20;;
68188;SDS011;66299;47.514;19.218;2022-12-29T05:26:35;62.28;;;35.45;;
68188;SDS011;66299;47.514;19.218;2022-12-29T05:29:04;60.38;;;34.40;;
68188;SDS011;66299;47.514;19.218;2022-12-29T05:31:33;60.03;;;34.10;;
68188;SDS011;66299;47.514;19.218;2022-12-29T05:34:04;62.78;;;34.20;;
68188;SDS011;66299;47.514;19.218;2022-12-29T05:36:33;57.92;;;34.10;;
68188;SDS011;66299;47.514;19.218;2022-12-29T05:39:03;62.90;;;33.28;;
68188;SDS011;66299;47.514;19.218;2022-12-29T05:41:35;62.22;;;34.30;;
68188;SDS011;66299;47.514;19.218;2022-12-29T05:44:04;61.15;;;34.45;;
68188;SDS011;66299;47.514;19.218;2022-12-29T05:46:32;59.70;;;34.38;;
68188;SDS011;66299;47.514;19.218;2022-12-29T05:49:01;60.97;;;34.72;;
68188;SDS011;66299;47.514;19.218;2022-12-29T05:51:29;63.38;;;35.28;;
68188;SDS011;66299;47.514;19.218;2022-12-29T05:53:58;63.05;;;35.05;;
68188;SDS011;66299;47.514;19.218;2022-12-29T05:56:27;63.10;;;35.15;;
68188;SDS011;66299;47.514;19.218;2022-12-29T05:58:57;65.60;;;35.95;;
68188;SDS011;66299;47.514;19.218;2022-12-29T06:01:25;71.85;;;37.00;;
68188;SDS011;66299;47.514;19.218;2022-12-29T06:03:54;69.35;;;38.55;;
68188;SDS011;66299;47.514;19.218;2022-12-29T06:06:22;75.63;;;39.55;;
68188;SDS011;66299;47.514;19.218;2022-12-29T06:08:51;68.35;;;36.95;;
68188;SDS011;66299;47.514;19.218;2022-12-29T06:11:20;72.20;;;37.80;;
68188;SDS011;66299;47.514;19.218;2022-12-29T06:13:48;69.82;;;38.58;;
68188;SDS011;66299;47.514;19.218;2022-12-29T06:16:19;68.60;;;36.95;;
68188;SDS011;66299;47.514;19.218;2022-12-29T06:18:50;68.40;;;36.85;;
68188;SDS011;66299;47.514;19.218;2022-12-29T06:21:20;66.60;;;37.50;;
68188;SDS011;66299;47.514;19.218;2022-12-29T06:23:48;72.05;;;37.58;;
68188;SDS011;66299;47.514;19.218;2022-12-29T06:26:16;67.55;;;36.40;;
68188;SDS011;66299;47.514;19.218;2022-12-29T06:28:46;71.35;;;38.65;;
68188;SDS011;66299;47.514;19.218;2022-12-29T06:31:14;69.47;;;37.58;;
68188;SDS011;66299;47.514;19.218;2022-12-29T06:33:47;68.97;;;38.35;;
68188;SDS011;66299;47.514;19.218;2022-12-29T06:36:16;72.90;;;37.55;;
68188;SDS011;66299;47.514;19.218;2022-12-29T06:38:44;68.30;;;37.90;;
68188;SDS011;66299;47.514;19.218;2022-12-29T06:41:13;72.38;;;39.90;;
68188;SDS011;66299;47.514;19.218;2022-12-29T06:43:42;75.50;;;40.25;;
68188;SDS011;66299;47.514;19.218;2022-12-29T06:46:11;73.53;;;39.30;;
68188;SDS011;66299;47.514;19.218;2022-12-29T06:48:40;71.32;;;37.75;;
68188;SDS011;66299;47.514;19.218;2022-12-29T06:51:11;71.63;;;37.67;;
68188;SDS011;66299;47.514;19.218;2022-12-29T06:53:39;66.47;;;37.30;;
68188;SDS011;66299;47.514;19.218;2022-12-29T06:56:09;68.47;;;37.70;;
68188;SDS011;66299;47.514;19.218;2022-12-29T06:58:38;69.10;;;38.00;;
68188;SDS011;66299;47.514;19.218;2022-12-29T07:01:07;66.18;;;37.60;;
68188;SDS011;66299;47.514;19.218;2022-12-29T07:03:36;71.15;;;39.17;;
68188;SDS011;66299;47.514;19.218;2022-12-29T07:06:04;71.50;;;39.33;;
68188;SDS011;66299;47.514;19.218;2022-12-29T07:08:37;67.65;;;38.80;;
68188;SDS011;66299;47.514;19.218;2022-12-29T07:11:06;72.05;;;39.88;;
68188;SDS011;66299;47.514;19.218;2022-12-29T07:13:37;75.13;;;41.28;;
68188;SDS011;66299;47.514;19.218;2022-12-29T07:16:08;73.22;;;39.60;;
68188;SDS011;66299;47.514;19.218;2022-12-29T07:18:37;76.55;;;40.85;;
68188;SDS011;66299;47.514;19.218;2022-12-29T07:21:06;68.47;;;38.78;;
68188;SDS011;66299;47.514;19.218;2022-12-29T07:23:35;73.72;;;39.50;;
68188;SDS011;66299;47.514;19.218;2022-12-29T07:26:05;72.72;;;39.63;;
68188;SDS011;66299;47.514;19.218;2022-12-29T07:28:37;65.43;;;38.22;;
68188;SDS011;66299;47.514;19.218;2022-12-29T07:31:08;67.18;;;36.88;;
68188;SDS011;66299;47.514;19.218;2022-12-29T07:33:42;66.65;;;36.35;;
68188;SDS011;66299;47.514;19.218;2022-12-29T07:36:11;63.65;;;36.28;;
68188;SDS011;66299;47.514;19.218;2022-12-29T07:38:40;66.22;;;37.92;;
68188;SDS011;66299;47.514;19.218;2022-12-29T07:41:11;70.65;;;37.78;;
68188;SDS011;66299;47.514;19.218;2022-12-29T07:43:40;69.13;;;37.83;;
68188;SDS011;66299;47.514;19.218;2022-12-29T07:46:09;69.72;;;37.70;;
68188;SDS011;66299;47.514;19.218;2022-12-29T07:48:58;63.33;;;37.75;;
68188;SDS011;66299;47.514;19.218;2022-12-29T07:51:26;59.70;;;35.83;;
68188;SDS011;66299;47.514;19.218;2022-12-29T07:53:55;68.95;;;38.03;;
68188;SDS011;66299;47.514;19.218;2022-12-29T07:56:27;65.00;;;37.97;;
68188;SDS011;66299;47.514;19.218;2022-12-29T07:58:56;66.38;;;40.03;;
68188;SDS011;66299;47.514;19.218;2022-12-29T08:01:24;75.30;;;42.08;;
68188;SDS011;66299;47.514;19.218;2022-12-29T08:03:54;67.60;;;40.25;;
68188;SDS011;66299;47.514;19.218;2022-12-29T08:06:23;70.95;;;40.97;;
68188;SDS011;66299;47.514;19.218;2022-12-29T08:08:52;63.65;;;39.35;;
68188;SDS011;66299;47.514;19.218;2022-12-29T08:11:25;62.28;;;38.72;;
68188;SDS011;66299;47.514;19.218;2022-12-29T08:13:55;70.22;;;42.05;;
68188;SDS011;66299;47.514;19.218;2022-12-29T08:16:24;65.18;;;38.75;;
68188;SDS011;66299;47.514;19.218;2022-12-29T08:18:52;77.78;;;47.38;;
68188;SDS011;66299;47.514;19.218;2022-12-29T08:21:21;60.38;;;37.78;;
68188;SDS011;66299;47.514;19.218;2022-12-29T08:23:49;60.38;;;37.15;;
68188;SDS011;66299;47.514;19.218;2022-12-29T08:26:18;63.95;;;37.17;;
68188;SDS011;66299;47.514;19.218;2022-12-29T08:28:47;89.55;;;62.25;;
68188;SDS011;66299;47.514;19.218;2022-12-29T08:31:17;71.55;;;45.38;;
68188;SDS011;66299;47.514;19.218;2022-12-29T08:33:45;73.60;;;47.30;;
68188;SDS011;66299;47.514;19.218;2022-12-29T08:36:14;64.25;;;44.53;;
68188;SDS011;66299;47.514;19.218;2022-12-29T08:38:42;69.88;;;43.25;;
68188;SDS011;66299;47.514;19.218;2022-12-29T08:41:12;61.15;;;39.10;;
68188;SDS011;66299;47.514;19.218;2022-12-29T08:43:41;52.40;;;34.00;;
68188;SDS011;66299;47.514;19.218;2022-12-29T08:46:13;53.50;;;31.60;;
68188;SDS011;66299;47.514;19.218;2022-12-29T08:48:44;53.03;;;31.08;;
68188;SDS011;66299;47.514;19.218;2022-12-29T08:51:13;50.15;;;30.95;;
68188;SDS011;66299;47.514;19.218;2022-12-29T08:53:52;50.92;;;30.35;;
68188;SDS011;66299;47.514;19.218;2022-12-29T08:56:21;50.38;;;29.83;;
68188;SDS011;66299;47.514;19.218;2022-12-29T08:58:50;52.03;;;28.63;;
68188;SDS011;66299;47.514;19.218;2022-12-29T09:01:19;46.10;;;27.75;;
68188;SDS011;66299;47.514;19.218;2022-12-29T09:03:54;47.05;;;28.00;;
68188;SDS011;66299;47.514;19.218;2022-12-29T09:06:42;43.88;;;26.88;;
68188;SDS011;66299;47.514;19.218;2022-12-29T09:09:11;45.20;;;27.23;;
68188;SDS011;66299;47.514;19.218;2022-12-29T09:11:40;45.35;;;27.38;;
68188;SDS011;66299;47.514;19.218;2022-12-29T09:14:09;47.42;;;27.45;;
68188;SDS011;66299;47.514;19.218;2022-12-29T09:16:38;46.92;;;28.02;;
68188;SDS011;66299;47.514;19.218;2022-12-29T09:19:23;46.50;;;26.58;;
68188;SDS011;66299;47.514;19.218;2022-12-29T09:21:52;45.05;;;27.02;;
68188;SDS011;66299;47.514;19.218;2022-12-29T09:24:21;47.58;;;26.25;;
68188;SDS011;66299;47.514;19.218;2022-12-29T09:26:49;44.35;;;26.88;;
68188;SDS011;66299;47.514;19.218;2022-12-29T09:29:18;43.85;;;26.65;;
68188;SDS011;66299;47.514;19.218;2022-12-29T09:31:46;45.08;;;26.95;;
68188;SDS011;66299;47.514;19.218;2022-12-29T09:34:15;42.15;;;25.80;;
68188;SDS011;66299;47.514;19.218;2022-12-29T09:36:45;41.60;;;26.08;;
68188;SDS011;66299;47.514;19.218;2022-12-29T09:39:13;43.53;;;26.80;;
68188;SDS011;66299;47.514;19.218;2022-12-29T09:41:43;44.10;;;26.52;;
68188;SDS011;66299;47.514;19.218;2022-12-29T09:44:19;47.30;;;27.80;;
68188;SDS011;66299;47.514;19.218;2022-12-29T09:46:54;44.00;;;27.63;;
68188;SDS011;66299;47.514;19.218;2022-12-29T09:49:25;46.13;;;26.30;;
68188;SDS011;66299;47.514;19.218;2022-12-29T09:52:02;48.90;;;27.10;;
68188;SDS011;66299;47.514;19.218;2022-12-29T09:54:39;43.30;;;26.27;;
68188;SDS011;66299;47.514;19.218;2022-12-29T09:57:22;46.13;;;26.80;;
68188;SDS011;66299;47.514;19.218;2022-12-29T09:59:54;43.75;;;26.13;;
68188;SDS011;66299;47.514;19.218;2022-12-29T10:02:31;45.22;;;26.23;;
68188;SDS011;66299;47.514;19.218;2022-12-29T10:05:08;45.15;;;26.30;;
68188;SDS011;66299;47.514;19.218;2022-12-29T10:07:48;43.80;;;24.63;;
68188;SDS011;66299;47.514;19.218;2022-12-29T10:10:28;41.83;;;24.85;;
68188;SDS011;66299;47.514;19.218;2022-12-29T10:21:46;41.92;;;24.83;;
68188;SDS011;66299;47.514;19.218;2022-12-29T10:24:26;38.28;;;23.02;;
68188;SDS011;66299;47.514;19.218;2022-12-29T10:26:56;41.13;;;24.58;;
68188;SDS011;66299;47.514;19.218;2022-12-29T10:29:27;41.45;;;25.08;;
68188;SDS011;66299;47.514;19.218;2022-12-29T10:32:02;42.28;;;25.40;;
68188;SDS011;66299;47.514;19.218;2022-12-29T10:34:36;40.58;;;24.17;;
68188;SDS011;66299;47.514;19.218;2022-12-29T10:37:09;44.22;;;25.70;;
68188;SDS011;66299;47.514;19.218;2022-12-29T10:39:58;41.28;;;25.30;;
68188;SDS011;66299;47.514;19.218;2022-12-29T10:42:28;41.42;;;25.15;;
68188;SDS011;66299;47.514;19.218;2022-12-29T10:45:01;41.95;;;25.60;;
68188;SDS011;66299;47.514;19.218;2022-12-29T10:47:31;46.50;;;25.58;;
68188;SDS011;66299;47.514;19.218;2022-12-29T10:50:04;42.55;;;25.65;;
68188;SDS011;66299;47.514;19.218;2022-12-29T10:52:34;42.05;;;25.73;;
68188;SDS011;66299;47.514;19.218;2022-12-29T10:55:11;43.05;;;25.52;;
68188;SDS011;66299;47.514;19.218;2022-12-29T10:57:42;42.90;;;26.15;;
68188;SDS011;66299;47.514;19.218;2022-12-29T11:00:12;43.88;;;27.08;;
68188;SDS011;66299;47.514;19.218;2022-12-29T11:02:46;43.53;;;27.30;;
68188;SDS011;66299;47.514;19.218;2022-12-29T11:05:32;44.20;;;26.00;;
68188;SDS011;66299;47.514;19.218;2022-12-29T11:08:04;50.53;;;30.55;;
68188;SDS011;66299;47.514;19.218;2022-12-29T11:10:41;51.28;;;29.30;;
68188;SDS011;66299;47.514;19.218;2022-12-29T11:13:11;48.78;;;29.85;;
68188;SDS011;66299;47.514;19.218;2022-12-29T11:15:46;47.72;;;29.27;;
68188;SDS011;66299;47.514;19.218;2022-12-29T11:18:20;49.78;;;29.48;;
68188;SDS011;66299;47.514;19.218;2022-12-29T11:20:50;50.28;;;29.90;;
68188;SDS011;66299;47.514;19.218;2022-12-29T11:23:22;46.03;;;28.10;;
68188;SDS011;66299;47.514;19.218;2022-12-29T11:26:11;46.65;;;28.42;;
68188;SDS011;66299;47.514;19.218;2022-12-29T11:28:43;45.22;;;28.15;;
68188;SDS011;66299;47.514;19.218;2022-12-29T11:31:15;47.55;;;29.05;;
68188;SDS011;66299;47.514;19.218;2022-12-29T11:33:45;49.72;;;29.25;;
68188;SDS011;66299;47.514;19.218;2022-12-29T11:38:48;54.58;;;34.08;;
68188;SDS011;66299;47.514;19.218;2022-12-29T11:41:22;48.35;;;30.63;;
68188;SDS011;66299;47.514;19.218;2022-12-29T11:43:53;48.67;;;29.83;;
68188;SDS011;66299;47.514;19.218;2022-12-29T11:46:24;47.47;;;29.23;;
68188;SDS011;66299;47.514;19.218;2022-12-29T11:48:56;51.30;;;31.45;;
68188;SDS011;66299;47.514;19.218;2022-12-29T11:51:28;59.03;;;37.25;;
68188;SDS011;66299;47.514;19.218;2022-12-29T11:53:59;49.88;;;31.80;;
68188;SDS011;66299;47.514;19.218;2022-12-29T11:56:36;48.83;;;31.95;;
68188;SDS011;66299;47.514;19.218;2022-12-29T12:02:20;49.67;;;29.60;;
68188;SDS011;66299;47.514;19.218;2022-12-29T12:04:57;52.30;;;32.22;;
68188;SDS011;66299;47.514;19.218;2022-12-29T12:07:34;45.20;;;28.83;;
68188;SDS011;66299;47.514;19.218;2022-12-29T12:10:11;54.10;;;30.60;;
68188;SDS011;66299;47.514;19.218;2022-12-29T12:12:48;50.22;;;31.48;;
68188;SDS011;66299;47.514;19.218;2022-12-29T12:15:24;56.05;;;34.10;;
68188;SDS011;66299;47.514;19.218;2022-12-29T12:18:00;52.05;;;32.55;;
68188;SDS011;66299;47.514;19.218;2022-12-29T12:20:36;49.40;;;30.55;;
68188;SDS011;66299;47.514;19.218;2022-12-29T12:23:13;49.80;;;30.27;;
68188;SDS011;66299;47.514;19.218;2022-12-29T12:28:28;50.67;;;29.92;;
68188;SDS011;66299;47.514;19.218;2022-12-29T12:31:05;51.05;;;30.13;;
68188;SDS011;66299;47.514;19.218;2022-12-29T12:33:41;48.15;;;29.90;;
68188;SDS011;66299;47.514;19.218;2022-12-29T12:36:19;56.15;;;30.40;;
68188;SDS011;66299;47.514;19.218;2022-12-29T12:38:59;51.50;;;31.23;;
68188;SDS011;66299;47.514;19.218;2022-12-29T12:41:39;50.55;;;30.45;;
68188;SDS011;66299;47.514;19.218;2022-12-29T12:44:20;51.30;;;30.63;;
68188;SDS011;66299;47.514;19.218;2022-12-29T12:47:07;50.33;;;30.15;;
68188;SDS011;66299;47.514;19.218;2022-12-29T12:49:58;49.60;;;30.50;;
68188;SDS011;66299;47.514;19.218;2022-12-29T12:52:45;53.28;;;31.80;;
68188;SDS011;66299;47.514;19.218;2022-12-29T12:55:35;49.45;;;31.38;;
68188;SDS011;66299;47.514;19.218;2022-12-29T12:58:14;52.53;;;32.45;;
68188;SDS011;66299;47.514;19.218;2022-12-29T13:00:55;53.45;;;32.10;;
68188;SDS011;66299;47.514;19.218;2022-12-29T13:03:43;49.85;;;30.65;;
68188;SDS011;66299;47.514;19.218;2022-12-29T13:06:22;50.42;;;30.50;;
68188;SDS011;66299;47.514;19.218;2022-12-29T13:09:00;50.85;;;29.50;;
68188;SDS011;66299;47.514;19.218;2022-12-29T13:11:48;48.60;;;31.73;;
68188;SDS011;66299;47.514;19.218;2022-12-29T13:14:30;55.88;;;33.28;;
68188;SDS011;66299;47.514;19.218;2022-12-29T13:17:11;50.65;;;30.30;;
68188;SDS011;66299;47.514;19.218;2022-12-29T13:19:48;49.00;;;29.42;;
68188;SDS011;66299;47.514;19.218;2022-12-29T13:22:22;49.03;;;29.25;;
68188;SDS011;66299;47.514;19.218;2022-12-29T13:25:03;48.92;;;29.20;;
68188;SDS011;66299;47.514;19.218;2022-12-29T13:27:46;51.92;;;28.88;;
68188;SDS011;66299;47.514;19.218;2022-12-29T13:30:21;49.65;;;28.98;;
68188;SDS011;66299;47.514;19.218;2022-12-29T13:32:55;47.10;;;28.83;;
68188;SDS011;66299;47.514;19.218;2022-12-29T13:35:34;45.53;;;29.15;;
68188;SDS011;66299;47.514;19.218;2022-12-29T13:38:20;44.47;;;27.90;;
68188;SDS011;66299;47.514;19.218;2022-12-29T13:40:53;47.20;;;29.27;;
68188;SDS011;66299;47.514;19.218;2022-12-29T13:43:25;46.05;;;27.80;;
68188;SDS011;66299;47.514;19.218;2022-12-29T13:46:00;48.75;;;28.70;;
68188;SDS011;66299;47.514;19.218;2022-12-29T13:48:38;49.15;;;29.02;;
68188;SDS011;66299;47.514;19.218;2022-12-29T13:51:11;46.20;;;27.90;;
68188;SDS011;66299;47.514;19.218;2022-12-29T13:53:47;46.45;;;28.90;;
68188;SDS011;66299;47.514;19.218;2022-12-29T13:56:29;46.25;;;28.13;;
68188;SDS011;66299;47.514;19.218;2022-12-29T13:59:04;50.17;;;29.40;;
68188;SDS011;66299;47.514;19.218;2022-12-29T14:01:39;45.13;;;28.23;;
68188;SDS011;66299;47.514;19.218;2022-12-29T14:04:20;52.45;;;29.13;;
68188;SDS011;66299;47.514;19.218;2022-12-29T14:06:59;48.67;;;30.23;;
68188;SDS011;66299;47.514;19.218;2022-12-29T14:12:34;46.78;;;29.50;;
68188;SDS011;66299;47.514;19.218;2022-12-29T14:15:13;51.90;;;32.40;;
68188;SDS011;66299;47.514;19.218;2022-12-29T14:18:00;55.10;;;30.10;;
68188;SDS011;66299;47.514;19.218;2022-12-29T14:20:36;50.17;;;30.30;;
68188;SDS011;66299;47.514;19.218;2022-12-29T14:23:16;51.88;;;30.02;;
68188;SDS011;66299;47.514;19.218;2022-12-29T14:25:56;57.83;;;33.80;;
68188;SDS011;66299;47.514;19.218;2022-12-29T14:30:57;54.65;;;35.25;;
68188;SDS011;66299;47.514;19.218;2022-12-29T14:33:29;57.92;;;35.42;;
68188;SDS011;66299;47.514;19.218;2022-12-29T14:38:53;60.53;;;36.50;;
68188;SDS011;66299;47.514;19.218;2022-12-29T14:41:26;61.30;;;35.40;;
68188;SDS011;66299;47.514;19.218;2022-12-29T14:44:01;60.88;;;36.03;;
68188;SDS011;66299;47.514;19.218;2022-12-29T14:46:42;64.43;;;38.15;;
68188;SDS011;66299;47.514;19.218;2022-12-29T14:49:18;66.35;;;40.08;;
68188;SDS011;66299;47.514;19.218;2022-12-29T14:51:51;76.72;;;46.22;;
68188;SDS011;66299;47.514;19.218;2022-12-29T14:57:12;67.53;;;42.03;;
68188;SDS011;66299;47.514;19.218;2022-12-29T14:59:47;69.15;;;41.45;;
68188;SDS011;66299;47.514;19.218;2022-12-29T15:02:21;67.47;;;41.47;;
68188;SDS011;66299;47.514;19.218;2022-12-29T15:04:53;69.32;;;41.90;;
68188;SDS011;66299;47.514;19.218;2022-12-29T15:07:29;68.70;;;43.17;;
68188;SDS011;66299;47.514;19.218;2022-12-29T15:10:00;70.30;;;43.63;;
68188;SDS011;66299;47.514;19.218;2022-12-29T15:12:35;74.78;;;45.83;;
68188;SDS011;66299;47.514;19.218;2022-12-29T15:15:20;77.40;;;47.28;;
68188;SDS011;66299;47.514;19.218;2022-12-29T15:17:50;81.80;;;46.40;;
68188;SDS011;66299;47.514;19.218;2022-12-29T15:20:24;84.85;;;48.75;;
68188;SDS011;66299;47.514;19.218;2022-12-29T15:22:57;135.48;;;81.93;;